sensor_id;sensor_type;location;lat;lon;timestamp;P1;durP1;ratioP1;P2;durP2;ratioP2
29254;SDS011;16277;48.890;2.306;2023-04-01T00:09:23;8.07;;;2.97;;
29254;SDS011;16277;48.890;2.306;2023-04-01T00:24:31;5.53;;;2.53;;
29254;SDS011;16277;48.890;2.306;2023-04-01T00:39:36;6.00;;;2.83;;
29254;SDS011;16277;48.890;2.306;2023-04-01T00:54:41;7.17;;;3.10;;
29254;SDS011;16277;48.890;2.306;2023-04-01T01:09:50;9.43;;;3.83;;
29254;SDS011;16277;48.890;2.306;2023-04-01T01:25:08;6.30;;;3.37;;
29254;SDS011;16277;48.890;2.306;2023-04-01T01:40:22;4.20;;;2.60;;
29254;SDS011;16277;48.890;2.306;2023-04-01T01:55:30;5.83;;;2.70;;
29254;SDS011;16277;48.890;2.306;2023-04-01T02:10:37;3.97;;;2.70;;
29254;SDS011;16277;48.890;2.306;2023-04-01T02:25:45;8.60;;;2.93;;
29254;SDS011;16277;48.890;2.306;2023-04-01T02:40:56;13.40;;;3.47;;
29254;SDS011;16277;48.890;2.306;2023-04-01T02:56:03;8.80;;;3.57;;
29254;SDS011;16277;48.890;2.306;2023-04-01T03:11:08;4.03;;;2.17;;
29254;SDS011;16277;48.890;2.306;2023-04-01T03:26:13;8.53;;;2.60;;
29254;SDS011;16277;48.890;2.306;2023-04-01T03:41:18;9.73;;;2.97;;
29254;SDS011;16277;48.890;2.306;2023-04-01T03:56:23;9.07;;;2.73;;
29254;SDS011;16277;48.890;2.306;2023-04-01T04:11:28;7.70;;;3.23;;
29254;SDS011;16277;48.890;2.306;2023-04-01T04:26:35;14.73;;;3.77;;
29254;SDS011;16277;48.890;2.306;2023-04-01T04:41:40;13.80;;;3.93;;
29254;SDS011;16277;48.890;2.306;2023-04-01T04:56:45;8.77;;;3.37;;
29254;SDS011;16277;48.890;2.306;2023-04-01T05:11:50;10.73;;;3.30;;
29254;SDS011;16277;48.890;2.306;2023-04-01T05:26:56;8.10;;;2.93;;
29254;SDS011;16277;48.890;2.306;2023-04-01T05:42:02;13.87;;;2.97;;
29254;SDS011;16277;48.890;2.306;2023-04-01T05:57:07;6.47;;;2.87;;
29254;SDS011;16277;48.890;2.306;2023-04-01T06:12:19;9.40;;;3.30;;
29254;SDS011;16277;48.890;2.306;2023-04-01T06:27:50;4.30;;;3.30;;
29254;SDS011;16277;48.890;2.306;2023-04-01T06:43:07;14.60;;;2.60;;
29254;SDS011;16277;48.890;2.306;2023-04-01T06:58:49;3.13;;;2.53;;
29254;SDS011;16277;48.890;2.306;2023-04-01T07:13:59;13.10;;;2.40;;
29254;SDS011;16277;48.890;2.306;2023-04-01T07:29:08;6.00;;;3.47;;
29254;SDS011;16277;48.890;2.306;2023-04-01T07:44:27;10.17;;;2.43;;
29254;SDS011;16277;48.890;2.306;2023-04-01T07:59:39;21.27;;;3.63;;
29254;SDS011;16277;48.890;2.306;2023-04-01T08:15:02;8.87;;;2.30;;
29254;SDS011;16277;48.890;2.306;2023-04-01T08:30:35;11.70;;;3.43;;
29254;SDS011;16277;48.890;2.306;2023-04-01T08:45:59;2.63;;;2.43;;
29254;SDS011;16277;48.890;2.306;2023-04-01T09:01:24;4.80;;;2.70;;
29254;SDS011;16277;48.890;2.306;2023-04-01T09:17:12;5.50;;;2.93;;
29254;SDS011;16277;48.890;2.306;2023-04-01T09:48:29;4.83;;;2.57;;
29254;SDS011;16277;48.890;2.306;2023-04-01T10:19:42;7.93;;;2.47;;
29254;SDS011;16277;48.890;2.306;2023-04-01T10:51:06;2.63;;;2.17;;
29254;SDS011;16277;48.890;2.306;2023-04-01T11:06:26;2.50;;;1.67;;
29254;SDS011;16277;48.890;2.306;2023-04-01T11:21:54;10.47;;;2.23;;
29254;SDS011;16277;48.890;2.306;2023-04-01T11:37:24;7.07;;;2.43;;
29254;SDS011;16277;48.890;2.306;2023-04-01T11:53:06;4.77;;;1.87;;
29254;SDS011;16277;48.890;2.306;2023-04-01T12:08:19;3.47;;;2.50;;
29254;SDS011;16277;48.890;2.306;2023-04-01T12:23:47;1.60;;;1.33;;
29254;SDS011;16277;48.890;2.306;2023-04-01T12:39:06;3.13;;;2.60;;
29254;SDS011;16277;48.890;2.306;2023-04-01T13:10:09;2.20;;;1.73;;
29254;SDS011;16277;48.890;2.306;2023-04-01T13:25:24;1.60;;;1.50;;
29254;SDS011;16277;48.890;2.306;2023-04-01T13:40:36;3.37;;;1.77;;
29254;SDS011;16277;48.890;2.306;2023-04-01T13:56:08;3.73;;;1.63;;
29254;SDS011;16277;48.890;2.306;2023-04-01T14:11:22;1.80;;;1.70;;
29254;SDS011;16277;48.890;2.306;2023-04-01T14:26:50;5.47;;;0.97;;
29254;SDS011;16277;48.890;2.306;2023-04-01T14:42:23;1.47;;;1.37;;
29254;SDS011;16277;48.890;2.306;2023-04-01T14:57:42;6.30;;;2.43;;
29254;SDS011;16277;48.890;2.306;2023-04-01T15:13:03;5.53;;;2.20;;
29254;SDS011;16277;48.890;2.306;2023-04-01T15:28:17;5.18;;;1.00;;
29254;SDS011;16277;48.890;2.306;2023-04-01T15:43:30;1.67;;;1.57;;
29254;SDS011;16277;48.890;2.306;2023-04-01T15:58:46;6.97;;;6.67;;
29254;SDS011;16277;48.890;2.306;2023-04-01T16:13:58;1.70;;;1.60;;
29254;SDS011;16277;48.890;2.306;2023-04-01T16:29:12;1.63;;;0.93;;
29254;SDS011;16277;48.890;2.306;2023-04-01T16:44:27;1.50;;;1.33;;
29254;SDS011;16277;48.890;2.306;2023-04-01T16:59:35;3.17;;;1.43;;
29254;SDS011;16277;48.890;2.306;2023-04-01T17:14:42;1.43;;;1.33;;
29254;SDS011;16277;48.890;2.306;2023-04-01T17:30:03;4.50;;;4.23;;
29254;SDS011;16277;48.890;2.306;2023-04-01T17:45:21;5.13;;;2.53;;
29254;SDS011;16277;48.890;2.306;2023-04-01T18:00:29;3.10;;;2.27;;
29254;SDS011;16277;48.890;2.306;2023-04-01T18:15:58;6.73;;;3.33;;
29254;SDS011;16277;48.890;2.306;2023-04-01T18:31:11;6.23;;;3.60;;
29254;SDS011;16277;48.890;2.306;2023-04-01T18:46:20;4.20;;;2.93;;
29254;SDS011;16277;48.890;2.306;2023-04-01T19:01:31;6.70;;;2.83;;
29254;SDS011;16277;48.890;2.306;2023-04-01T19:16:45;3.28;;;2.85;;
29254;SDS011;16277;48.890;2.306;2023-04-01T19:31:58;4.07;;;3.50;;
29254;SDS011;16277;48.890;2.306;2023-04-01T19:47:11;4.93;;;3.53;;
29254;SDS011;16277;48.890;2.306;2023-04-01T20:02:48;6.90;;;3.17;;
29254;SDS011;16277;48.890;2.306;2023-04-01T20:18:00;5.53;;;4.33;;
29254;SDS011;16277;48.890;2.306;2023-04-01T20:33:15;4.40;;;4.00;;
29254;SDS011;16277;48.890;2.306;2023-04-01T20:48:36;9.53;;;5.73;;
29254;SDS011;16277;48.890;2.306;2023-04-01T21:03:56;4.53;;;4.17;;
29254;SDS011;16277;48.890;2.306;2023-04-01T21:19:18;6.60;;;6.10;;
29254;SDS011;16277;48.890;2.306;2023-04-01T21:34:37;6.10;;;5.53;;
29254;SDS011;16277;48.890;2.306;2023-04-01T21:50:00;7.10;;;6.10;;
29254;SDS011;16277;48.890;2.306;2023-04-01T22:05:28;8.27;;;5.53;;
29254;SDS011;16277;48.890;2.306;2023-04-01T22:20:39;9.33;;;6.40;;
29254;SDS011;16277;48.890;2.306;2023-04-01T22:35:52;8.20;;;6.73;;
29254;SDS011;16277;48.890;2.306;2023-04-01T22:51:03;6.70;;;6.30;;
29254;SDS011;16277;48.890;2.306;2023-04-01T23:06:15;11.63;;;6.57;;
29254;SDS011;16277;48.890;2.306;2023-04-01T23:21:25;6.20;;;5.67;;
29254;SDS011;16277;48.890;2.306;2023-04-01T23:36:37;5.33;;;4.83;;
29254;SDS011;16277;48.890;2.306;2023-04-01T23:51:49;4.50;;;3.97;;
